createdAt,value
2022-11-12T00:00:40.638Z,68.28
2022-11-12T00:01:41.515Z,69.13
2022-11-12T00:02:41.032Z,69.85
2022-11-12T00:03:41.206Z,69.75
2022-11-12T00:04:41.945Z,69.98
2022-11-12T00:05:41.597Z,70.50
2022-11-12T00:06:41.887Z,70.81
2022-11-12T00:07:42.441Z,70.91
2022-11-12T00:08:42.078Z,70.81
2022-11-12T00:09:42.212Z,70.32
2022-11-12T00:10:43.388Z,70.64
2022-11-12T00:11:42.513Z,70.32
2022-11-12T00:12:42.661Z,70.43
2022-11-12T00:13:42.829Z,69.84
2022-11-12T00:14:43.942Z,69.74
2022-11-12T00:15:43.180Z,69.74
2022-11-12T00:16:43.357Z,69.74
2022-11-12T00:17:43.964Z,69.40
2022-11-12T00:18:43.737Z,68.68
2022-11-12T00:19:43.908Z,68.59
2022-11-12T00:20:44.095Z,68.59
2022-11-12T00:21:44.252Z,69.30
2022-11-12T00:22:44.493Z,69.81
2022-11-12T00:23:44.642Z,69.71
2022-11-12T00:24:45.449Z,68.72
2022-11-12T00:25:44.952Z,69.74
2022-11-12T00:26:45.074Z,70.56
2022-11-12T00:27:45.947Z,71.01
2022-11-12T00:28:45.453Z,70.70
2022-11-12T00:29:45.620Z,70.90
2022-11-12T00:30:45.736Z,71.52
2022-11-12T00:31:45.908Z,72.44
2022-11-12T00:32:46.952Z,72.44
2022-11-12T00:33:46.195Z,72.99
2022-11-12T00:34:46.332Z,73.30
2022-11-12T00:35:46.488Z,73.74
2022-11-12T00:36:46.625Z,72.34
2022-11-12T00:37:46.767Z,73.23
2022-11-12T00:38:46.997Z,73.54
2022-11-12T00:39:47.948Z,72.82
2022-11-12T00:40:47.335Z,72.82
2022-11-12T00:41:47.494Z,73.95
2022-11-12T00:42:47.643Z,73.23
2022-11-12T00:43:47.820Z,74.08
2022-11-12T00:44:47.967Z,73.98
2022-11-12T00:45:48.137Z,73.98
2022-11-12T00:46:48.313Z,73.91
2022-11-12T00:47:48.444Z,74.53
2022-11-12T00:48:48.570Z,74.98
2022-11-12T00:49:48.717Z,74.63
2022-11-12T00:50:48.855Z,74.87
2022-11-12T00:51:49.018Z,75.49
2022-11-12T00:52:49.153Z,75.29
2022-11-12T00:53:49.325Z,75.46
2022-11-12T00:54:49.581Z,75.25
2022-11-12T00:55:49.590Z,75.87
2022-11-12T00:56:50.455Z,76.69
2022-11-12T00:57:49.962Z,74.98
2022-11-12T00:58:50.127Z,74.22
2022-11-12T00:59:50.307Z,74.77
2022-11-12T01:00:50.469Z,75.18
2022-11-12T01:01:50.674Z,74.98
2022-11-12T01:02:51.576Z,75.32
2022-11-12T01:03:52.057Z,75.80
2022-11-12T01:04:51.956Z,75.39
2022-11-12T01:05:51.439Z,75.29
2022-11-12T01:06:51.606Z,74.77
2022-11-12T01:07:55.959Z,75.08
2022-11-12T01:08:52.907Z,75.08
2022-11-12T01:09:53.046Z,74.63
2022-11-12T01:10:52.312Z,75.29
2022-11-12T01:11:52.450Z,75.39
2022-11-12T01:12:52.587Z,75.18
2022-11-12T01:13:53.455Z,75.80
2022-11-12T01:14:52.939Z,75.70
2022-11-12T01:15:53.094Z,75.29
2022-11-12T01:16:53.211Z,75.84
2022-11-12T01:17:53.338Z,75.52
2022-11-12T01:18:53.477Z,75.94
2022-11-12T01:19:53.719Z,76.35
2022-11-12T01:20:53.871Z,76.97
2022-11-12T01:21:53.995Z,76.56
2022-11-12T01:22:54.126Z,76.14
2022-11-12T01:23:54.962Z,75.84
2022-11-12T01:24:54.564Z,76.14
2022-11-12T01:25:54.784Z,75.94
2022-11-12T01:26:54.898Z,75.84
2022-11-12T01:27:55.028Z,76.86
2022-11-12T01:28:55.153Z,76.56
2022-11-12T01:29:55.330Z,75.84
2022-11-12T01:30:56.475Z,76.25
2022-11-12T01:31:55.704Z,76.14
2022-11-12T01:32:55.859Z,75.01
2022-11-12T01:33:55.998Z,75.42
2022-11-12T01:34:56.473Z,75.73
2022-11-12T01:35:56.346Z,76.14
2022-11-12T01:36:57.467Z,76.14
2022-11-12T01:37:56.723Z,76.39
2022-11-12T01:38:56.867Z,75.25
2022-11-12T01:39:57.486Z,75.56
2022-11-12T01:40:58.048Z,76.35
2022-11-12T01:41:57.456Z,76.25
2022-11-12T01:42:57.618Z,76.59
2022-11-12T01:43:57.767Z,77.11
2022-11-12T01:44:57.940Z,76.59
2022-11-12T01:45:58.104Z,76.90
2022-11-12T01:46:58.289Z,77.31
2022-11-12T01:47:58.459Z,77.31
2022-11-12T01:48:58.634Z,77.11
2022-11-12T01:49:59.467Z,78.14
2022-11-12T01:50:58.988Z,77.42
2022-11-12T01:51:59.207Z,77.42
2022-11-12T01:52:59.378Z,77.31
2022-11-12T01:53:59.562Z,76.90
2022-11-12T01:54:59.729Z,76.07
2022-11-12T01:55:59.890Z,76.79
2022-11-12T01:57:00.139Z,76.07
2022-11-12T01:58:00.974Z,76.28
2022-11-12T01:59:00.995Z,76.28
2022-11-12T02:00:00.491Z,75.67
2022-11-12T02:01:00.693Z,76.18
2022-11-12T02:02:00.887Z,76.21
2022-11-12T02:03:01.486Z,76.39
2022-11-12T02:04:01.246Z,76.59
2022-11-12T02:05:01.422Z,76.28
2022-11-12T02:06:02.461Z,76.32
2022-11-12T02:07:03.499Z,76.49
2022-11-12T02:08:01.907Z,77.00
2022-11-12T02:09:02.063Z,77.66
2022-11-12T02:10:02.481Z,77.45
2022-11-12T02:11:02.377Z,77.55
2022-11-12T02:12:02.653Z,76.93
2022-11-12T02:13:02.680Z,76.93
2022-11-12T02:14:02.847Z,76.73
2022-11-12T02:15:03.042Z,76.83
2022-11-12T02:16:03.205Z,77.35
2022-11-12T02:17:03.969Z,76.73
2022-11-12T02:18:03.597Z,77.25
2022-11-12T02:19:04.467Z,76.93
2022-11-12T02:20:03.894Z,76.53
2022-11-12T02:21:04.091Z,77.25
2022-11-12T02:22:04.227Z,77.38
2022-11-12T02:23:04.979Z,77.25
2022-11-12T02:24:04.592Z,77.14
2022-11-12T02:25:04.735Z,77.35
2022-11-12T02:26:04.923Z,77.25
2022-11-12T02:27:06.073Z,76.59
2022-11-12T02:28:05.323Z,77.21
2022-11-12T02:29:05.495Z,77.00
2022-11-12T02:30:05.631Z,76.79
2022-11-12T02:31:05.985Z,76.42
2022-11-12T02:32:06.973Z,77.04
2022-11-12T02:33:06.208Z,76.93
2022-11-12T02:34:06.370Z,76.73
2022-11-12T02:35:07.477Z,77.04
2022-11-12T02:36:07.481Z,76.93
2022-11-12T02:37:06.856Z,77.45
2022-11-12T02:38:07.049Z,77.04
2022-11-12T02:39:07.191Z,76.83
2022-11-12T02:40:07.974Z,76.83
2022-11-12T02:41:07.977Z,76.83
2022-11-12T02:42:07.694Z,77.35
2022-11-12T02:43:08.041Z,77.48
2022-11-12T02:44:08.186Z,78.38
2022-11-12T02:45:08.297Z,78.11
2022-11-12T02:46:08.539Z,77.38
2022-11-12T02:47:08.797Z,77.69
2022-11-12T02:48:08.915Z,77.90
2022-11-12T02:49:09.489Z,77.90
2022-11-12T02:50:09.388Z,78.34
2022-11-12T02:51:10.477Z,78.24
2022-11-12T02:52:09.714Z,78.55
2022-11-12T02:53:09.833Z,78.11
2022-11-12T02:54:09.965Z,78.24
2022-11-12T02:55:10.119Z,78.34
2022-11-12T02:56:10.244Z,78.76
2022-11-12T02:57:10.381Z,78.86
2022-11-12T02:58:10.647Z,78.14
2022-11-12T02:59:11.501Z,78.55
2022-11-12T03:00:11.477Z,78.55
2022-11-12T03:01:11.164Z,78.66
2022-11-12T03:02:11.306Z,78.86
2022-11-12T03:03:11.489Z,79.38
2022-11-12T03:04:11.638Z,79.38
2022-11-12T03:05:11.790Z,79.17
2022-11-12T03:06:11.927Z,78.97
2022-11-12T03:07:12.116Z,78.86
2022-11-12T03:08:12.495Z,79.07
2022-11-12T03:09:12.985Z,78.86
2022-11-12T03:10:12.621Z,78.97
2022-11-12T03:11:13.484Z,78.97
2022-11-12T03:12:12.972Z,79.27
2022-11-12T03:13:13.238Z,79.52
2022-11-12T03:14:13.981Z,79.17
2022-11-12T03:15:13.507Z,79.90
2022-11-12T03:16:13.666Z,80.04
2022-11-12T03:17:13.825Z,80.76
2022-11-12T03:18:14.027Z,80.44
2022-11-12T03:19:14.202Z,80.65
2022-11-12T03:20:14.350Z,81.07
2022-11-12T03:21:14.543Z,81.21
2022-11-12T03:22:14.723Z,81.07
2022-11-12T03:23:14.892Z,81.21
2022-11-12T03:24:15.044Z,81.07
2022-11-12T03:25:15.202Z,80.90
2022-11-12T03:26:15.370Z,81.21
2022-11-12T03:27:15.537Z,81.10
2022-11-12T03:28:16.574Z,81.62
2022-11-12T03:29:15.918Z,82.45
2022-11-12T03:30:16.989Z,81.82
2022-11-12T03:31:16.495Z,81.68
2022-11-12T03:32:16.366Z,81.68
2022-11-12T03:33:16.627Z,81.48
2022-11-12T03:34:16.752Z,81.62
2022-11-12T03:35:16.875Z,81.17
2022-11-12T03:36:16.999Z,81.00
2022-11-12T03:37:17.144Z,80.86
2022-11-12T03:38:17.266Z,81.51
2022-11-12T03:39:17.420Z,81.68
2022-11-12T03:40:17.564Z,81.58
2022-11-12T03:41:17.704Z,81.82
2022-11-12T03:42:17.849Z,81.72
2022-11-12T03:43:17.983Z,82.24
2022-11-12T03:44:18.210Z,82.24
2022-11-12T03:45:18.361Z,81.82
2022-11-12T03:46:19.498Z,82.45
2022-11-12T03:47:19.011Z,82.34
2022-11-12T03:48:18.772Z,82.34
2022-11-12T03:49:19.493Z,81.99
2022-11-12T03:50:19.136Z,81.51
2022-11-12T03:51:19.500Z,81.72
2022-11-12T03:52:19.517Z,82.14
2022-11-12T03:53:19.668Z,82.45
2022-11-12T03:54:19.833Z,81.62
2022-11-12T03:55:19.990Z,82.24
2022-11-12T03:56:20.136Z,82.96
2022-11-12T03:57:20.257Z,82.45
2022-11-12T03:58:20.997Z,82.75
2022-11-12T03:59:20.682Z,82.55
2022-11-12T04:00:21.005Z,82.51
2022-11-12T04:01:21.064Z,81.72
2022-11-12T04:02:22.001Z,81.82
2022-11-12T04:03:21.364Z,82.24
2022-11-12T04:04:22.493Z,82.55
2022-11-12T04:05:22.008Z,82.45
2022-11-12T04:06:22.011Z,82.48
2022-11-12T04:07:22.034Z,82.07
2022-11-12T04:08:22.186Z,83.31
2022-11-12T04:09:22.508Z,83.20
2022-11-12T04:10:22.545Z,83.41
2022-11-12T04:11:23.494Z,83.31
2022-11-12T04:12:22.855Z,82.69
2022-11-12T04:13:23.021Z,82.75
2022-11-12T04:14:24.083Z,82.48
2022-11-12T04:15:23.351Z,83.45
2022-11-12T04:16:23.504Z,83.34
2022-11-12T04:17:24.501Z,84.28
2022-11-12T04:18:24.297Z,84.63
2022-11-12T04:19:25.127Z,84.07
2022-11-12T04:20:24.242Z,84.17
2022-11-12T04:21:24.996Z,84.28
2022-11-12T04:22:25.502Z,83.65
2022-11-12T04:23:24.756Z,83.65
2022-11-12T04:24:24.907Z,84.38
2022-11-12T04:25:25.038Z,84.28
2022-11-12T04:26:26.157Z,84.38
2022-11-12T04:27:25.414Z,84.38
2022-11-12T04:28:25.929Z,84.17
2022-11-12T04:29:26.101Z,84.17
2022-11-12T04:30:25.967Z,84.48
2022-11-12T04:31:26.104Z,84.28
2022-11-12T04:32:26.249Z,84.17
2022-11-12T04:33:26.398Z,84.13
2022-11-12T04:34:26.570Z,84.07
2022-11-12T04:35:27.514Z,83.72
2022-11-12T04:36:27.500Z,83.93
2022-11-12T04:37:27.997Z,83.34
2022-11-12T04:38:28.038Z,83.55
2022-11-12T04:39:27.407Z,83.97
2022-11-12T04:40:27.549Z,84.38
2022-11-12T04:41:27.679Z,84.28
2022-11-12T04:42:28.508Z,84.28
2022-11-12T04:43:27.993Z,84.48
2022-11-12T04:44:28.141Z,84.69
2022-11-12T04:45:28.376Z,83.97
2022-11-12T04:46:29.010Z,83.86
2022-11-12T04:47:29.502Z,83.86
2022-11-12T04:48:29.438Z,83.97
2022-11-12T04:49:29.007Z,84.00
2022-11-12T04:50:29.185Z,84.28
2022-11-12T04:51:29.334Z,83.97
2022-11-12T04:52:30.031Z,84.38
2022-11-12T04:53:29.666Z,84.07
2022-11-12T04:54:30.508Z,84.48
2022-11-12T04:55:30.021Z,84.07
2022-11-12T04:56:30.164Z,84.28
2022-11-12T04:57:30.306Z,84.07
2022-11-12T04:58:30.586Z,84.42
2022-11-12T04:59:30.686Z,83.76
2022-11-12T05:00:30.946Z,84.28
2022-11-12T05:01:31.019Z,84.48
2022-11-12T05:02:31.215Z,84.28
2022-11-12T05:03:31.418Z,84.17
2022-11-12T05:04:32.019Z,84.11
2022-11-12T05:05:34.105Z,84.07
2022-11-12T05:06:33.052Z,84.07
2022-11-12T05:07:32.187Z,84.38
2022-11-12T05:08:32.356Z,84.17
2022-11-12T05:09:32.525Z,83.86
2022-11-12T05:10:33.507Z,84.17
2022-11-12T05:11:33.521Z,83.65
2022-11-12T05:12:33.056Z,83.76
2022-11-12T05:13:34.007Z,83.55
2022-11-12T05:14:33.397Z,83.55
2022-11-12T05:15:34.112Z,83.97
2022-11-12T05:16:33.726Z,84.13
2022-11-12T05:17:33.851Z,83.55
2022-11-12T05:18:34.512Z,83.14
2022-11-12T05:20:07.525Z,83.14
2022-11-12T05:20:34.274Z,83.34
2022-11-12T05:21:36.949Z,83.34
2022-11-12T05:22:45.636Z,83.80
2022-11-12T05:23:36.841Z,84.42
2022-11-12T05:24:41.851Z,83.90
2022-11-12T05:25:37.293Z,84.28
2022-11-12T05:26:35.502Z,84.28
2022-11-12T05:27:35.636Z,84.48
2022-11-12T05:28:35.774Z,84.31
2022-11-12T05:29:35.921Z,84.28
2022-11-12T05:30:37.158Z,84.28
2022-11-12T05:31:37.053Z,84.48
2022-11-12T05:32:36.426Z,84.11
2022-11-12T05:33:36.577Z,84.31
2022-11-12T05:34:36.699Z,84.21
2022-11-12T05:35:36.845Z,84.52
2022-11-12T05:36:37.551Z,84.94
2022-11-12T05:37:37.188Z,84.87
2022-11-12T05:38:37.563Z,85.04
2022-11-12T05:39:37.582Z,85.45
2022-11-12T05:40:37.691Z,84.42
2022-11-12T05:42:05.895Z,84.31
2022-11-12T05:42:40.037Z,84.83
2022-11-12T05:43:38.223Z,84.31
2022-11-12T05:44:38.348Z,84.63
2022-11-12T05:45:38.486Z,84.21
2022-11-12T05:46:38.695Z,84.31
2022-11-12T05:47:39.065Z,84.73
2022-11-12T05:48:39.550Z,84.66
2022-11-12T05:49:39.173Z,85.60
2022-11-12T05:51:06.207Z,85.08
2022-11-12T05:51:41.510Z,85.35
2022-11-12T05:52:39.777Z,85.24
2022-11-12T05:53:39.922Z,84.73
2022-11-12T05:54:40.083Z,85.04
2022-11-12T05:55:40.570Z,85.24
2022-11-12T05:56:40.450Z,85.35
2022-11-12T05:57:40.639Z,85.41
2022-11-12T05:58:40.804Z,84.17
2022-11-12T05:59:40.965Z,83.93
2022-11-12T06:00:41.104Z,84.03
2022-11-12T06:01:41.247Z,83.78
2022-11-12T06:02:43.216Z,83.27
2022-11-12T06:03:42.538Z,83.10
2022-11-12T06:04:41.799Z,83.27
2022-11-12T06:05:41.933Z,82.89
2022-11-12T06:06:42.118Z,83.27
2022-11-12T06:07:42.317Z,83.31
2022-11-12T06:08:42.448Z,83.78
2022-11-12T06:09:43.072Z,83.51
2022-11-12T06:10:42.817Z,84.23
2022-11-12T06:11:42.975Z,83.72
2022-11-12T06:12:44.061Z,83.93
2022-11-12T06:13:43.300Z,83.93
2022-11-12T06:14:43.453Z,83.72
2022-11-12T06:15:43.634Z,84.44
2022-11-12T06:16:43.812Z,84.55
2022-11-12T06:17:44.011Z,84.03
2022-11-12T06:18:44.246Z,84.34
2022-11-12T06:19:44.282Z,84.23
2022-11-12T06:20:44.466Z,83.89
2022-11-12T06:21:45.653Z,84.30
2022-11-12T06:22:44.859Z,84.30
2022-11-12T06:23:45.564Z,83.78
2022-11-12T06:24:46.066Z,84.51
2022-11-12T06:25:45.575Z,83.99
2022-11-12T06:26:45.586Z,83.68
2022-11-12T06:27:45.746Z,84.23
2022-11-12T06:28:45.958Z,83.99
2022-11-12T06:29:46.140Z,84.23
2022-11-12T06:30:47.327Z,84.03
2022-11-12T06:31:46.442Z,84.13
2022-11-12T06:32:46.589Z,84.38
2022-11-12T06:33:47.655Z,84.69
2022-11-12T06:34:46.876Z,84.75
2022-11-12T06:35:47.600Z,85.00
2022-11-12T06:36:47.227Z,85.31
2022-11-12T06:37:47.390Z,85.41
2022-11-12T06:38:47.544Z,85.83
2022-11-12T06:39:48.568Z,85.52
2022-11-12T06:40:48.587Z,85.31
2022-11-12T06:41:48.081Z,85.62
2022-11-12T06:42:48.221Z,85.66
2022-11-12T06:43:48.369Z,86.24
2022-11-12T06:44:48.516Z,85.72
2022-11-12T06:45:48.682Z,85.86
2022-11-12T06:46:48.851Z,86.07
2022-11-12T06:47:49.077Z,86.13
2022-11-12T06:48:50.158Z,86.28
2022-11-12T06:49:49.416Z,85.93
2022-11-12T06:50:50.069Z,86.28
2022-11-12T06:51:49.691Z,86.49
2022-11-12T06:52:49.813Z,86.34
2022-11-12T06:53:50.569Z,86.24
2022-11-12T06:54:50.191Z,86.07
2022-11-12T06:55:50.316Z,86.13
2022-11-12T06:56:50.487Z,86.03
2022-11-12T06:57:50.618Z,85.97
2022-11-12T06:58:51.603Z,86.13
2022-11-12T06:59:50.949Z,86.24
2022-11-12T07:00:51.097Z,86.24
2022-11-12T07:01:51.365Z,86.18
2022-11-12T07:02:51.426Z,86.24
2022-11-12T07:03:51.582Z,86.55
2022-11-12T07:04:51.841Z,86.24
2022-11-12T07:05:51.972Z,86.55
2022-11-12T07:06:53.199Z,87.27
2022-11-12T07:07:52.326Z,87.27
2022-11-12T07:08:53.078Z,87.27
2022-11-12T07:09:52.710Z,87.17
2022-11-12T07:10:53.573Z,87.07
2022-11-12T07:11:54.085Z,86.76
2022-11-12T07:12:54.072Z,87.27
2022-11-12T07:13:54.077Z,87.73
2022-11-12T07:14:54.095Z,87.62
2022-11-12T07:15:54.086Z,87.93
2022-11-12T07:16:53.866Z,87.83
2022-11-12T07:17:53.981Z,87.93
2022-11-12T07:18:54.586Z,88.04
2022-11-12T07:19:57.193Z,87.87
2022-11-12T07:20:56.073Z,87.83
2022-11-12T07:21:55.576Z,87.56
2022-11-12T07:22:55.590Z,88.07
2022-11-12T07:23:54.954Z,88.07
2022-11-12T07:24:55.118Z,88.70
2022-11-12T07:25:55.585Z,88.59
2022-11-12T07:26:55.456Z,88.45
2022-11-12T07:27:55.589Z,88.18
2022-11-12T07:28:56.085Z,88.70
2022-11-12T07:29:55.993Z,88.65
2022-11-12T07:30:56.140Z,89.07
2022-11-12T07:31:57.096Z,88.86
2022-11-12T07:32:56.472Z,88.96
2022-11-12T07:33:57.086Z,89.07
2022-11-12T07:34:56.936Z,87.68
2022-11-12T07:35:57.581Z,87.89
2022-11-12T07:36:57.214Z,87.99
2022-11-12T07:37:59.757Z,87.89
2022-11-12T07:38:58.597Z,87.48
2022-11-12T07:39:57.734Z,87.58
2022-11-12T07:40:57.906Z,87.48
2022-11-12T07:41:58.074Z,87.73
2022-11-12T07:42:58.225Z,87.99
2022-11-12T07:43:58.387Z,87.79
2022-11-12T07:44:58.577Z,87.99
2022-11-12T07:45:58.732Z,87.89
2022-11-12T07:46:59.579Z,87.99
2022-11-12T07:47:59.111Z,87.89
2022-11-12T07:48:59.313Z,88.41
2022-11-12T07:49:59.597Z,88.06
2022-11-12T07:50:59.635Z,87.95
2022-11-12T07:52:00.098Z,87.74
2022-11-12T07:53:00.015Z,88.06
2022-11-12T07:54:00.595Z,87.85
2022-11-12T07:55:01.087Z,87.65
2022-11-12T07:56:00.579Z,88.06
2022-11-12T07:57:00.757Z,88.32
2022-11-12T07:58:00.940Z,88.22
2022-11-12T07:59:01.112Z,87.56
2022-11-12T08:00:02.089Z,87.66
2022-11-12T08:01:02.083Z,87.15
2022-11-12T08:02:02.094Z,88.04
2022-11-12T08:03:01.852Z,87.42
2022-11-12T08:04:02.583Z,87.42
2022-11-12T08:05:02.341Z,87.38
2022-11-12T08:06:03.157Z,86.76
2022-11-12T08:07:02.606Z,86.66
2022-11-12T08:08:03.845Z,86.97
2022-11-12T08:09:02.914Z,86.72
2022-11-12T08:10:03.078Z,86.82
2022-11-12T08:11:03.222Z,86.82
2022-11-12T08:12:03.396Z,86.88
2022-11-12T08:13:03.549Z,86.37
2022-11-12T08:14:04.584Z,86.99
2022-11-12T08:15:04.099Z,85.86
2022-11-12T08:16:04.116Z,85.96
2022-11-12T08:17:04.258Z,85.96
2022-11-12T08:18:05.553Z,85.82
2022-11-12T08:19:04.546Z,85.82
2022-11-12T08:20:05.098Z,85.36
2022-11-12T08:21:05.188Z,85.57
2022-11-12T08:22:05.584Z,85.16
2022-11-12T08:23:05.232Z,85.63
2022-11-12T08:24:06.384Z,85.35
2022-11-12T08:25:06.087Z,83.49
2022-11-12T08:26:06.586Z,81.56
2022-11-12T08:27:05.844Z,77.93
2022-11-12T08:28:06.588Z,73.74
2022-11-12T08:29:08.704Z,72.75
2022-11-12T08:30:08.095Z,70.24
2022-11-12T08:31:07.588Z,69.32
2022-11-12T08:32:06.731Z,69.70
2022-11-12T08:33:06.927Z,70.75
2022-11-12T08:34:07.076Z,71.46
2022-11-12T08:35:08.090Z,72.08
2022-11-12T08:36:07.461Z,71.97
2022-11-12T08:37:07.675Z,71.53
2022-11-12T08:38:07.832Z,71.19
2022-11-12T08:39:08.012Z,70.58
2022-11-12T08:40:08.179Z,70.28
2022-11-12T08:41:09.094Z,70.04
2022-11-12T08:42:08.473Z,69.19
2022-11-12T08:43:08.633Z,68.52
2022-11-12T08:44:09.086Z,67.74
2022-11-12T08:45:09.102Z,65.45
2022-11-12T08:46:09.120Z,64.33
2022-11-12T08:47:10.093Z,64.43
2022-11-12T08:48:10.108Z,64.30
2022-11-12T08:49:10.107Z,62.79
2022-11-12T08:50:10.109Z,61.52
2022-11-12T08:51:10.592Z,61.01
2022-11-12T08:52:10.288Z,60.84
2022-11-12T08:53:11.096Z,62.08
2022-11-12T08:54:11.099Z,62.92
2022-11-12T08:55:10.769Z,62.35
2022-11-12T08:56:11.622Z,60.71
2022-11-12T08:57:11.146Z,60.48
2022-11-12T08:58:11.329Z,60.25
2022-11-12T08:59:11.491Z,60.62
2022-11-12T09:00:11.645Z,59.81
2022-11-12T09:01:12.712Z,60.29
2022-11-12T09:02:12.608Z,59.96
2022-11-12T09:03:13.101Z,60.60
2022-11-12T09:04:12.322Z,59.38
2022-11-12T09:05:12.474Z,60.36
2022-11-12T09:06:13.629Z,59.33
2022-11-12T09:07:43.395Z,60.29
2022-11-12T09:08:15.654Z,60.60
2022-11-12T09:09:13.136Z,60.49
2022-11-12T09:10:13.358Z,60.44
2022-11-12T09:11:14.127Z,58.95
2022-11-12T09:12:19.278Z,60.80
2022-11-12T09:13:15.956Z,60.62
2022-11-12T09:14:14.324Z,61.73
2022-11-12T09:16:16.624Z,61.56
2022-11-12T09:17:14.738Z,61.36
2022-11-12T09:18:15.607Z,62.37
2022-11-12T09:19:15.121Z,62.34
2022-11-12T09:20:15.275Z,62.41
2022-11-12T09:21:15.416Z,61.68
2022-11-12T09:22:15.619Z,60.84
2022-11-12T09:23:16.700Z,60.78
2022-11-12T09:24:15.961Z,59.57
2022-11-12T09:25:16.637Z,58.74
2022-11-12T09:26:16.275Z,58.11
2022-11-12T09:27:16.439Z,58.38
2022-11-12T09:28:16.595Z,57.43
2022-11-12T09:29:17.124Z,57.40
2022-11-12T09:30:17.615Z,58.84
2022-11-12T09:31:17.621Z,58.26
2022-11-12T09:32:17.276Z,58.34
2022-11-12T09:33:18.119Z,57.10
2022-11-12T09:34:18.614Z,58.54
2022-11-12T09:35:17.867Z,58.03
2022-11-12T09:36:18.028Z,58.01
2022-11-12T09:37:19.115Z,58.47
2022-11-12T09:38:18.462Z,59.07
2022-11-12T09:39:19.122Z,60.71
2022-11-12T09:40:19.626Z,60.17
2022-11-12T09:41:19.126Z,60.98
2022-11-12T09:42:19.624Z,60.41
2022-11-12T09:43:19.629Z,61.32
2022-11-12T09:44:19.390Z,60.58
2022-11-12T09:45:20.116Z,61.16
2022-11-12T09:46:27.339Z,60.72
2022-11-12T09:47:22.626Z,59.48
2022-11-12T09:48:20.095Z,58.55
2022-11-12T09:49:20.273Z,57.12
2022-11-12T09:50:21.120Z,56.49
2022-11-12T09:51:21.119Z,56.96
2022-11-12T09:52:21.622Z,55.86
2022-11-12T09:53:21.716Z,54.15
2022-11-12T09:54:21.136Z,54.02
2022-11-12T09:55:21.279Z,54.45
2022-11-12T09:56:21.427Z,55.16
2022-11-12T09:57:21.575Z,55.43
2022-11-12T09:58:21.749Z,53.80
2022-11-12T09:59:21.937Z,55.18
2022-11-12T10:00:22.110Z,54.58
2022-11-12T10:01:22.345Z,52.39
2022-11-12T10:02:23.129Z,40.33
2022-11-12T10:03:23.133Z,48.35
2022-11-12T10:04:23.625Z,39.51
2022-11-12T10:05:23.132Z,40.99
2022-11-12T10:06:23.303Z,41.89
2022-11-12T10:07:24.127Z,35.76
2022-11-12T10:08:23.806Z,36.05
2022-11-12T10:09:23.879Z,33.84
2022-11-12T10:10:23.948Z,32.82
2022-11-12T10:11:24.121Z,35.31
2022-11-12T10:12:24.297Z,36.11
2022-11-12T10:13:24.495Z,34.61
2022-11-12T10:14:25.634Z,32.78
2022-11-12T10:15:25.634Z,32.68
2022-11-12T10:16:25.030Z,35.06
2022-11-12T10:17:25.661Z,35.98
2022-11-12T10:18:26.457Z,36.60
2022-11-12T10:19:25.466Z,38.29
2022-11-12T10:20:25.670Z,35.49
2022-11-12T10:21:25.899Z,35.60
2022-11-12T10:22:26.077Z,35.30
2022-11-12T10:23:26.251Z,39.01
2022-11-12T10:24:26.526Z,38.51
2022-11-12T10:25:26.585Z,38.40
2022-11-12T10:26:26.779Z,38.11
2022-11-12T10:27:26.956Z,36.71
2022-11-12T10:28:27.557Z,35.41
2022-11-12T10:29:27.305Z,37.40
2022-11-12T10:30:27.495Z,39.39
2022-11-12T10:31:27.673Z,40.89
2022-11-12T10:32:27.850Z,40.00
2022-11-12T10:33:28.060Z,38.20
2022-11-12T10:34:28.210Z,41.89
2022-11-12T10:35:29.347Z,41.60
2022-11-12T10:36:28.489Z,41.80
2022-11-12T10:37:28.681Z,41.60
2022-11-12T10:38:29.940Z,43.59
2022-11-12T10:39:29.242Z,45.01
2022-11-12T10:40:29.164Z,45.31
2022-11-12T10:41:30.343Z,41.63
2022-11-12T10:42:29.472Z,38.03
2022-11-12T10:43:29.645Z,35.43
2022-11-12T10:44:30.156Z,37.73
2022-11-12T10:45:29.961Z,34.33
2022-11-12T10:46:31.150Z,34.44
2022-11-12T10:47:30.267Z,32.74
2022-11-12T10:48:31.471Z,36.03
2022-11-12T10:49:30.620Z,38.13
2022-11-12T10:50:30.753Z,42.43
2022-11-12T10:51:31.641Z,37.13
2022-11-12T10:52:31.646Z,35.43
2022-11-12T10:53:32.152Z,35.23
2022-11-12T10:54:31.538Z,34.71
2022-11-12T10:55:31.542Z,34.51
2022-11-12T10:56:31.679Z,34.71
2022-11-12T10:57:32.645Z,35.81
2022-11-12T10:58:32.646Z,34.51
2022-11-12T10:59:32.657Z,38.03
2022-11-12T11:00:32.302Z,37.75
2022-11-12T11:01:35.713Z,38.25
2022-11-12T11:02:33.729Z,42.46
2022-11-12T11:03:32.864Z,43.85
2022-11-12T11:04:33.063Z,45.16
2022-11-12T11:05:33.247Z,37.35
2022-11-12T11:06:33.420Z,39.95
2022-11-12T11:07:34.147Z,42.85
2022-11-12T11:08:36.290Z,43.33
2022-11-12T11:09:35.070Z,41.53
2022-11-12T11:10:34.076Z,42.24
2022-11-12T11:11:35.259Z,40.93
2022-11-12T11:12:34.397Z,39.81
2022-11-12T11:13:34.574Z,38.42
2022-11-12T11:14:34.730Z,40.52
2022-11-12T11:15:34.903Z,37.92
2022-11-12T11:16:35.062Z,33.24
2022-11-12T11:17:35.241Z,32.74
2022-11-12T11:18:35.412Z,33.46
2022-11-12T11:19:35.594Z,38.25
2022-11-12T11:20:35.750Z,38.07
2022-11-12T11:21:41.683Z,41.05
2022-11-12T11:22:38.659Z,43.66
2022-11-12T11:23:36.264Z,43.33
2022-11-12T11:24:36.534Z,45.14
2022-11-12T11:25:37.156Z,44.74
2022-11-12T11:26:36.794Z,43.32
2022-11-12T11:27:36.961Z,44.92
2022-11-12T11:28:37.143Z,45.94
2022-11-12T11:29:37.311Z,45.86
2022-11-12T11:30:38.157Z,46.36
2022-11-12T11:31:37.705Z,45.88
2022-11-12T11:32:38.662Z,46.53
2022-11-12T11:33:38.066Z,43.30
2022-11-12T11:34:38.267Z,45.00
2022-11-12T11:35:39.162Z,45.00
2022-11-12T11:36:38.573Z,46.48
2022-11-12T11:37:38.732Z,47.78
2022-11-12T11:38:38.886Z,48.36
2022-11-12T11:39:39.053Z,46.56
2022-11-12T11:40:39.283Z,47.78
2022-11-12T11:41:39.429Z,46.58
2022-11-12T11:42:39.587Z,46.11
2022-11-12T11:43:39.789Z,46.70
2022-11-12T11:44:39.965Z,48.21
2022-11-12T11:45:40.113Z,48.01
2022-11-12T11:46:40.278Z,47.81
2022-11-12T11:47:59.881Z,48.31
2022-11-12T11:48:42.655Z,46.61
2022-11-12T11:49:40.884Z,48.31
2022-11-12T11:50:41.046Z,48.61
2022-11-12T11:51:41.229Z,48.49
2022-11-12T11:52:41.411Z,47.78
2022-11-12T11:53:41.578Z,48.19
2022-11-12T11:54:41.735Z,48.08
2022-11-12T11:55:42.037Z,46.56
2022-11-12T11:56:43.071Z,46.56
2022-11-12T11:57:43.172Z,48.26
2022-11-12T11:58:42.309Z,48.38
2022-11-12T11:59:42.470Z,48.49
2022-11-12T12:00:42.678Z,48.58
2022-11-12T12:01:43.671Z,48.19
2022-11-12T12:02:43.047Z,48.19
2022-11-12T12:03:43.262Z,46.88
2022-11-12T12:04:43.455Z,45.68
2022-11-12T12:05:44.172Z,46.68
2022-11-12T12:06:43.795Z,47.99
2022-11-12T12:07:43.873Z,48.41
2022-11-12T12:08:44.038Z,47.88
2022-11-12T12:09:44.203Z,48.41
2022-11-12T12:11:06.788Z,50.42
2022-11-12T12:11:46.543Z,49.91
2022-11-12T12:12:44.640Z,51.32
2022-11-12T12:13:45.676Z,50.21
2022-11-12T12:14:45.675Z,50.51
2022-11-12T12:15:45.680Z,50.11
2022-11-12T12:16:45.341Z,50.42
2022-11-12T12:17:45.534Z,48.01
2022-11-12T12:18:45.744Z,46.30
2022-11-12T12:19:46.677Z,46.78
2022-11-12T12:20:46.063Z,46.61
2022-11-12T12:21:47.183Z,47.81
2022-11-12T12:22:46.699Z,45.80
2022-11-12T12:23:46.653Z,48.71
2022-11-12T12:24:47.206Z,48.21
2022-11-12T12:25:47.092Z,50.21
2022-11-12T12:26:47.156Z,51.62
2022-11-12T12:27:47.332Z,52.12
2022-11-12T12:28:47.492Z,51.92
2022-11-12T12:29:47.668Z,51.82
2022-11-12T12:30:47.847Z,51.34
2022-11-12T12:31:47.976Z,49.51
2022-11-12T12:32:48.115Z,50.01
2022-11-12T12:33:48.274Z,50.92
2022-11-12T12:34:48.690Z,51.82
2022-11-12T12:35:49.182Z,52.72
2022-11-12T12:36:48.681Z,50.24
2022-11-12T12:37:49.197Z,46.12
2022-11-12T12:38:48.951Z,48.21
2022-11-12T12:39:49.094Z,46.70
2022-11-12T12:40:49.330Z,46.42
2022-11-12T12:41:49.388Z,47.43
2022-11-12T12:42:50.189Z,48.61
2022-11-12T12:43:50.687Z,46.75
2022-11-12T12:44:50.690Z,45.95
2022-11-12T12:45:50.168Z,48.75
2022-11-12T12:46:50.350Z,49.96
2022-11-12T12:47:50.492Z,49.86
2022-11-12T12:48:50.642Z,49.96
2022-11-12T12:49:50.780Z,45.65
2022-11-12T12:50:50.918Z,46.75
2022-11-12T12:51:55.607Z,46.45
2022-11-12T12:52:52.289Z,47.55
2022-11-12T12:53:51.404Z,48.66
2022-11-12T12:54:52.190Z,48.55
2022-11-12T12:55:51.705Z,48.16